Time;durP1;ratioP1;P1;durP2;ratioP2;P2;SDS_P1;SDS_P2;PMS_P1;PMS_P2;Temp;Humidity;BMP_temperature;BMP_pressure;BME280_temperature;BME280_humidity;BME280_pressure;Samples;Min_cycle;Max_cycle;Signal;HPM_P1;HPM_P2
2022/10/30 00:01:23;;;;;;;16.20;11.70;;;15.60;99.90;;;;;;5034734;28;20202;-67
2022/10/30 00:03:49;;;;;;;14.30;11.03;;;15.60;99.90;;;;;;5053827;28;20185;-67
2022/10/30 00:06:14;;;;;;;21.10;15.40;;;15.60;99.90;;;;;;5039196;28;20183;-67
2022/10/30 00:08:40;;;;;;;33.70;20.20;;;15.60;99.90;;;;;;5050540;28;20685;-67
2022/10/30 00:11:07;;;;;;;17.10;14.00;;;15.60;99.90;;;;;;5038111;28;20209;-67
2022/10/30 00:13:32;;;;;;;18.57;14.70;;;15.60;99.90;;;;;;5033569;28;20178;-67
2022/10/30 00:15:58;;;;;;;16.30;12.17;;;15.60;99.90;;;;;;5045025;28;20446;-67
2022/10/30 00:18:24;;;;;;;18.73;14.43;;;15.60;99.90;;;;;;5037623;28;20173;-67
2022/10/30 00:20:49;;;;;;;17.53;13.17;;;15.60;99.90;;;;;;5035637;28;20188;-67
2022/10/30 00:23:15;;;;;;;19.07;13.53;;;15.60;99.90;;;;;;5047842;28;20179;-67
2022/10/30 00:25:40;;;;;;;18.00;14.67;;;15.50;99.90;;;;;;5042785;28;20653;-67
2022/10/30 00:28:06;;;;;;;17.50;13.87;;;15.50;99.90;;;;;;5040823;28;20177;-67
2022/10/30 00:30:34;;;;;;;22.67;14.57;;;15.50;99.90;;;;;;5040572;28;20179;-67
2022/10/30 00:32:59;;;;;;;23.00;14.80;;;15.50;99.90;;;;;;5020985;28;20406;-66
2022/10/30 00:35:25;;;;;;;24.03;15.07;;;15.40;99.90;;;;;;5046087;28;20971;-66
2022/10/30 00:37:50;;;;;;;22.27;14.47;;;15.40;99.90;;;;;;5042990;28;20565;-66
2022/10/30 00:40:17;;;;;;;18.10;16.10;;;15.40;99.90;;;;;;5039187;28;20175;-66
2022/10/30 00:42:43;;;;;;;21.37;15.13;;;15.30;99.90;;;;;;5030629;28;20178;-66
2022/10/30 00:45:12;;;;;;;22.30;15.80;;;15.30;99.90;;;;;;5014964;28;20414;-67
2022/10/30 00:47:43;;;;;;;23.43;14.37;;;15.30;99.90;;;;;;5015018;28;20173;-67
2022/10/30 00:50:21;;;;;;;18.53;15.00;;;15.20;99.90;;;;;;5013903;28;20467;-67
2022/10/30 00:52:50;;;;;;;18.37;13.80;;;15.20;99.90;;;;;;5013955;28;20485;-67
2022/10/30 00:55:24;;;;;;;18.00;15.00;;;15.10;99.90;;;;;;5037189;28;20776;-68
2022/10/30 00:57:52;;;;;;;20.60;14.90;;;15.10;99.90;;;;;;5053514;28;20547;-66
2022/10/30 01:00:21;;;;;;;21.10;17.37;;;15.10;99.90;;;;;;5026179;28;20507;-67
2022/10/30 01:02:49;;;;;;;22.50;14.37;;;15.00;99.90;;;;;;5034744;28;20419;-67
2022/10/30 01:05:18;;;;;;;19.70;15.27;;;15.00;99.90;;;;;;5042921;28;20477;-66
2022/10/30 01:07:44;;;;;;;20.83;15.47;;;15.00;99.90;;;;;;5033302;28;20415;-67
2022/10/30 01:10:11;;;;;;;22.53;14.80;;;14.90;99.90;;;;;;5033044;28;20843;-66
2022/10/30 01:12:37;;;;;;;24.37;17.03;;;14.90;99.90;;;;;;5054852;23;20709;-70
2022/10/30 01:15:03;;;;;;;21.03;17.40;;;14.90;99.90;;;;;;5032649;28;20411;-69
2022/10/30 01:18:01;;;;;;;18.67;16.47;;;14.90;99.90;;;;;;5033223;28;20469;-69
2022/10/30 01:20:45;;;;;;;18.90;16.00;;;14.90;99.90;;;;;;5028431;28;20446;-69
2022/10/30 01:23:51;;;;;;;23.63;15.73;;;14.80;99.90;;;;;;5015330;28;20409;-70
2022/10/30 01:26:22;;;;;;;18.50;15.20;;;14.80;99.90;;;;;;5011319;28;20423;-70
2022/10/30 01:29:06;;;;;;;19.20;15.47;;;14.80;99.90;;;;;;5014932;28;20400;-70
2022/10/30 01:31:53;;;;;;;21.93;16.93;;;14.80;99.90;;;;;;5037023;28;20740;-70
2022/10/30 01:34:49;;;;;;;21.00;18.03;;;14.70;99.90;;;;;;5053857;28;20406;-71
2022/10/30 01:37:26;;;;;;;22.70;16.77;;;14.70;99.90;;;;;;5045927;28;20469;-69
2022/10/30 01:39:52;;;;;;;22.70;17.37;;;14.70;99.90;;;;;;5033567;28;20410;-70
2022/10/30 01:42:36;;;;;;;20.70;16.03;;;14.60;99.90;;;;;;5034220;28;20414;-70
2022/10/30 01:45:02;;;;;;;22.13;16.50;;;14.60;99.90;;;;;;5033165;28;20178;-70
2022/10/30 01:47:46;;;;;;;22.63;16.77;;;14.60;99.90;;;;;;5033187;28;20434;-71
2022/10/30 01:50:25;;;;;;;22.63;16.30;;;14.50;99.90;;;;;;5031903;28;20893;-70
2022/10/30 01:53:02;;;;;;;26.47;17.50;;;14.50;99.90;;;;;;5030284;28;20415;-70
2022/10/30 01:55:27;;;;;;;20.00;16.13;;;14.50;99.90;;;;;;5017092;28;20458;-70
2022/10/30 01:58:18;;;;;;;29.17;17.93;;;14.40;99.90;;;;;;5011791;28;20942;-70
2022/10/30 02:00:48;;;;;;;19.97;15.73;;;14.50;99.90;;;;;;5011870;28;20247;-69
2022/10/30 02:03:14;;;;;;;35.67;19.30;;;14.40;99.90;;;;;;5011765;28;20431;-70
2022/10/30 02:05:44;;;;;;;28.47;19.50;;;14.40;99.90;;;;;;5017748;28;20492;-70
2022/10/30 02:08:10;;;;;;;23.77;17.47;;;14.40;99.90;;;;;;5043015;28;20261;-70
2022/10/30 02:10:37;;;;;;;26.70;18.23;;;14.40;99.90;;;;;;5051129;28;20508;-70
2022/10/30 02:13:03;;;;;;;17.77;15.87;;;14.30;99.90;;;;;;5051150;28;20210;-69
2022/10/30 02:15:29;;;;;;;21.83;16.10;;;14.30;99.90;;;;;;5050980;28;20454;-69
2022/10/30 02:17:55;;;;;;;22.90;15.93;;;14.30;99.90;;;;;;5051135;28;20966;-69
2022/10/30 02:20:22;;;;;;;26.47;17.90;;;14.30;99.90;;;;;;5051265;28;20935;-69
2022/10/30 02:22:48;;;;;;;21.77;17.00;;;14.20;99.90;;;;;;5023085;28;20508;-70
2022/10/30 02:25:14;;;;;;;26.20;17.33;;;14.20;99.90;;;;;;5031055;28;20964;-70
2022/10/30 02:27:40;;;;;;;20.00;14.73;;;14.20;99.90;;;;;;5031032;28;20444;-71
2022/10/30 02:30:06;;;;;;;24.43;16.60;;;14.10;99.90;;;;;;5031225;28;20893;-70
2022/10/30 02:32:32;;;;;;;23.40;15.10;;;14.10;99.90;;;;;;5030969;28;20425;-70
2022/10/30 02:34:57;;;;;;;19.57;15.43;;;14.10;99.90;;;;;;5028327;28;20430;-72
2022/10/30 02:37:23;;;;;;;21.20;15.60;;;14.10;99.90;;;;;;5044072;28;20283;-70
2022/10/30 02:39:49;;;;;;;21.67;14.93;;;14.00;99.90;;;;;;5037661;28;20556;-70
2022/10/30 02:42:15;;;;;;;28.93;17.13;;;14.10;99.90;;;;;;5043852;28;20362;-70
2022/10/30 02:44:40;;;;;;;20.70;14.97;;;14.00;99.90;;;;;;5035968;28;20481;-70
2022/10/30 02:47:06;;;;;;;26.23;16.70;;;14.00;99.90;;;;;;5029431;28;20167;-69
2022/10/30 02:49:31;;;;;;;26.53;16.97;;;14.00;99.90;;;;;;5031997;28;20658;-70
2022/10/30 02:51:57;;;;;;;22.70;17.03;;;14.00;99.90;;;;;;5032045;28;20622;-70
2022/10/30 02:54:22;;;;;;;19.30;14.93;;;14.00;99.90;;;;;;5029262;28;20579;-69
2022/10/30 02:56:48;;;;;;;19.83;14.57;;;14.00;99.90;;;;;;5029432;28;20187;-70
2022/10/30 02:59:13;;;;;;;23.90;15.70;;;14.00;99.90;;;;;;5026744;28;20267;-70
2022/10/30 03:01:39;;;;;;;23.87;15.37;;;14.00;99.90;;;;;;5030271;28;20183;-71
2022/10/30 03:04:05;;;;;;;26.90;15.67;;;14.00;99.90;;;;;;5046435;28;20187;-71
2022/10/30 03:06:30;;;;;;;22.83;14.90;;;14.00;99.90;;;;;;5034558;28;20304;-70
2022/10/30 03:08:56;;;;;;;22.60;16.30;;;13.90;99.90;;;;;;5042083;28;20239;-71
2022/10/30 03:11:21;;;;;;;21.03;16.80;;;13.90;99.90;;;;;;5041507;28;20202;-70
2022/10/30 03:13:48;;;;;;;19.77;15.13;;;13.90;99.90;;;;;;5034869;28;20557;-70
2022/10/30 03:16:17;;;;;;;18.87;16.50;;;13.90;99.90;;;;;;5046429;28;20225;-71
2022/10/30 03:18:42;;;;;;;20.33;14.47;;;13.90;99.90;;;;;;5021556;28;20911;-70
2022/10/30 03:21:11;;;;;;;21.40;15.87;;;13.90;99.90;;;;;;5038515;28;20410;-70
2022/10/30 03:23:37;;;;;;;23.30;19.23;;;13.90;99.90;;;;;;5043858;28;20194;-70
2022/10/30 03:26:03;;;;;;;21.67;15.97;;;13.90;99.90;;;;;;5033278;28;20406;-70
2022/10/30 03:28:30;;;;;;;26.17;16.77;;;13.90;99.90;;;;;;5045608;28;20486;-70
2022/10/30 03:31:01;;;;;;;20.00;15.80;;;13.90;99.90;;;;;;5030635;28;20406;-70
2022/10/30 03:33:27;;;;;;;25.07;15.83;;;13.90;99.90;;;;;;5042289;28;20879;-70
2022/10/30 03:35:53;;;;;;;21.93;16.37;;;13.80;99.90;;;;;;5032842;28;20406;-70
2022/10/30 03:38:18;;;;;;;23.77;15.30;;;13.90;99.90;;;;;;5030996;28;20425;-70
2022/10/30 03:40:44;;;;;;;21.50;15.20;;;13.90;99.90;;;;;;5037686;28;20626;-70
2022/10/30 03:43:10;;;;;;;16.70;14.90;;;13.90;99.90;;;;;;5045292;28;20203;-70
2022/10/30 03:45:35;;;;;;;19.07;15.90;;;13.90;99.90;;;;;;5051476;28;20171;-70
2022/10/30 03:48:02;;;;;;;25.93;15.10;;;14.00;99.90;;;;;;5051788;28;20189;-70
2022/10/30 03:50:28;;;;;;;19.97;14.47;;;13.90;99.90;;;;;;5037170;28;20176;-70
2022/10/30 03:52:56;;;;;;;22.00;14.40;;;14.00;99.90;;;;;;5037834;28;20502;-70
2022/10/30 03:55:22;;;;;;;19.67;14.10;;;14.10;99.90;;;;;;5057813;28;20186;-70
2022/10/30 03:57:47;;;;;;;21.43;14.27;;;14.10;99.90;;;;;;5058029;28;20465;-70
2022/10/30 04:00:13;;;;;;;17.53;13.57;;;14.10;99.90;;;;;;5057866;28;20444;-70
2022/10/30 04:02:43;;;;;;;18.80;14.03;;;14.20;99.90;;;;;;5056668;28;20219;-70
2022/10/30 04:05:08;;;;;;;17.07;13.13;;;14.20;99.90;;;;;;5052499;28;20195;-70
2022/10/30 04:07:33;;;;;;;16.97;13.47;;;14.30;99.90;;;;;;5022634;28;20477;-70
2022/10/30 04:09:59;;;;;;;16.60;12.30;;;14.30;99.90;;;;;;5033671;28;20185;-70
2022/10/30 04:12:24;;;;;;;17.63;12.53;;;14.30;99.90;;;;;;5033785;28;20298;-70
2022/10/30 04:14:50;;;;;;;20.13;11.53;;;14.30;99.90;;;;;;5033960;28;20175;-70
2022/10/30 04:17:15;;;;;;;20.00;14.10;;;14.30;99.90;;;;;;5034074;28;20788;-70
2022/10/30 04:19:41;;;;;;;17.07;12.97;;;14.40;99.90;;;;;;5032792;28;20198;-69
2022/10/30 04:22:06;;;;;;;18.40;12.40;;;14.40;99.90;;;;;;5033970;28;20175;-69
2022/10/30 04:24:32;;;;;;;15.53;13.40;;;14.40;99.90;;;;;;5034058;28;20171;-72
2022/10/30 04:26:57;;;;;;;15.20;11.17;;;14.40;99.90;;;;;;5028670;28;20184;-69
2022/10/30 04:29:23;;;;;;;15.97;12.50;;;14.50;99.90;;;;;;5040859;28;20167;-70
2022/10/30 04:31:48;;;;;;;15.50;12.73;;;14.40;99.90;;;;;;5051598;28;20171;-70
2022/10/30 04:34:14;;;;;;;19.80;14.00;;;14.50;99.90;;;;;;5033568;28;20743;-70
2022/10/30 04:36:39;;;;;;;18.73;13.07;;;14.40;99.90;;;;;;5033173;28;20206;-70
2022/10/30 04:39:05;;;;;;;16.07;12.53;;;14.40;99.90;;;;;;5033464;28;20175;-71
2022/10/30 04:41:30;;;;;;;17.07;12.60;;;14.40;99.90;;;;;;5033366;28;20182;-70
2022/10/30 04:43:56;;;;;;;25.77;13.40;;;14.40;99.90;;;;;;5030154;28;20724;-69
2022/10/30 04:46:22;;;;;;;17.37;12.93;;;14.40;99.90;;;;;;5031847;28;20163;-69
2022/10/30 04:48:47;;;;;;;20.80;12.60;;;14.40;99.90;;;;;;5032026;28;20188;-69
2022/10/30 04:51:13;;;;;;;15.73;12.57;;;14.40;99.90;;;;;;5032931;28;20238;-70
2022/10/30 04:53:38;;;;;;;18.67;12.00;;;14.40;99.90;;;;;;5031531;28;20187;-69
2022/10/30 04:56:04;;;;;;;16.20;12.50;;;14.40;99.90;;;;;;5033238;28;20175;-70
2022/10/30 04:58:30;;;;;;;17.23;12.80;;;14.40;99.90;;;;;;5033316;28;20164;-70
2022/10/30 05:01:03;;;;;;;17.03;12.20;;;14.40;99.90;;;;;;5022182;28;20440;-70
2022/10/30 05:03:29;;;;;;;16.40;11.17;;;14.40;99.90;;;;;;5035251;28;20197;-69
2022/10/30 05:06:00;;;;;;;24.77;14.67;;;14.40;99.90;;;;;;5037012;28;20415;-70
2022/10/30 05:08:26;;;;;;;14.70;11.30;;;14.40;99.90;;;;;;5034233;28;20203;-71
2022/10/30 05:10:53;;;;;;;15.37;11.47;;;14.40;99.90;;;;;;5035417;28;20465;-70
2022/10/30 05:13:18;;;;;;;13.53;9.93;;;14.40;99.90;;;;;;5048590;28;20532;-70
2022/10/30 05:15:44;;;;;;;15.87;11.97;;;14.40;99.90;;;;;;5035301;28;20508;-69
2022/10/30 05:18:10;;;;;;;13.23;11.23;;;14.40;99.90;;;;;;5038278;28;20870;-70
2022/10/30 05:20:35;;;;;;;14.90;11.93;;;14.40;99.90;;;;;;5037413;28;20206;-70
2022/10/30 05:23:01;;;;;;;12.63;10.97;;;14.40;99.90;;;;;;5047560;28;20190;-69
2022/10/30 05:25:28;;;;;;;15.70;12.80;;;14.40;99.90;;;;;;5034964;28;20233;-70
2022/10/30 05:27:58;;;;;;;16.80;11.73;;;14.50;99.90;;;;;;5045513;28;20183;-70
2022/10/30 05:30:24;;;;;;;14.60;11.27;;;14.50;99.90;;;;;;5037152;28;20857;-70
2022/10/30 05:32:49;;;;;;;14.40;11.30;;;14.50;99.90;;;;;;5045803;28;20494;-70
2022/10/30 05:35:15;;;;;;;17.57;12.07;;;14.50;99.90;;;;;;5035305;28;20498;-70
2022/10/30 05:37:40;;;;;;;16.20;10.83;;;14.50;99.90;;;;;;5047486;28;20278;-70
2022/10/30 05:40:06;;;;;;;16.87;11.67;;;14.50;99.90;;;;;;5039728;28;20571;-71
2022/10/30 05:42:32;;;;;;;14.90;10.43;;;14.50;99.90;;;;;;5039940;28;20540;-71
2022/10/30 05:44:57;;;;;;;12.80;10.07;;;14.50;99.90;;;;;;5046302;28;20421;-70
2022/10/30 05:47:23;;;;;;;14.97;10.57;;;14.60;99.90;;;;;;5034948;28;20181;-69
2022/10/30 05:49:48;;;;;;;23.73;10.40;;;14.50;99.90;;;;;;5046081;28;20171;-70
2022/10/30 05:52:14;;;;;;;16.63;11.50;;;14.50;99.90;;;;;;5040868;28;20199;-69
2022/10/30 05:54:39;;;;;;;14.73;10.40;;;14.60;99.90;;;;;;5038490;28;20279;-71
2022/10/30 05:57:05;;;;;;;14.00;9.63;;;14.60;99.90;;;;;;5038111;28;20210;-70
2022/10/30 05:59:30;;;;;;;13.20;9.93;;;14.60;99.90;;;;;;5047933;28;20276;-69
2022/10/30 06:01:57;;;;;;;13.87;10.87;;;14.50;99.90;;;;;;5037788;28;20249;-70
2022/10/30 06:04:22;;;;;;;14.90;10.90;;;14.60;99.90;;;;;;5040694;28;20254;-71
2022/10/30 06:06:48;;;;;;;12.87;10.10;;;14.50;99.90;;;;;;5033245;28;20454;-71
2022/10/30 06:09:13;;;;;;;14.30;9.87;;;14.50;99.90;;;;;;5031774;28;20196;-71
2022/10/30 06:11:39;;;;;;;20.10;11.37;;;14.50;99.90;;;;;;5031621;28;20275;-70
2022/10/30 06:14:04;;;;;;;13.93;10.40;;;14.50;99.90;;;;;;5031426;28;20244;-70
2022/10/30 06:16:30;;;;;;;10.93;9.20;;;14.50;99.90;;;;;;5032387;28;20195;-69
2022/10/30 06:18:55;;;;;;;11.93;10.30;;;14.60;99.90;;;;;;5033394;28;20165;-71
2022/10/30 06:21:21;;;;;;;17.50;10.23;;;14.50;99.90;;;;;;5030989;28;20176;-70
2022/10/30 06:23:47;;;;;;;13.27;10.00;;;14.60;99.90;;;;;;5033863;28;20577;-70
2022/10/30 06:26:12;;;;;;;12.00;9.30;;;14.60;99.90;;;;;;5032907;28;20171;-70
2022/10/30 06:28:38;;;;;;;13.50;9.10;;;14.60;99.90;;;;;;5035196;28;20959;-71
2022/10/30 06:31:03;;;;;;;14.40;8.07;;;14.70;99.90;;;;;;5052644;28;20247;-71
2022/10/30 06:33:29;;;;;;;15.00;9.43;;;14.70;99.90;;;;;;5051798;28;20211;-70
2022/10/30 06:35:55;;;;;;;11.93;9.80;;;14.70;99.90;;;;;;5051507;28;20251;-71
2022/10/30 06:38:20;;;;;;;15.00;9.97;;;14.80;99.90;;;;;;5040906;28;20640;-70
2022/10/30 06:40:47;;;;;;;19.17;10.03;;;14.80;99.90;;;;;;5035273;28;20824;-70
2022/10/30 06:43:13;;;;;;;12.30;9.60;;;14.80;99.90;;;;;;5045493;28;20191;-71
2022/10/30 06:45:38;;;;;;;12.63;9.53;;;14.90;99.90;;;;;;5037729;28;20406;-71
2022/10/30 06:48:04;;;;;;;12.40;9.93;;;14.90;99.90;;;;;;5041223;28;20200;-71
2022/10/30 06:50:29;;;;;;;9.13;8.03;;;14.90;99.90;;;;;;5052862;28;20233;-71
2022/10/30 06:52:55;;;;;;;9.47;8.47;;;15.00;99.90;;;;;;5035469;28;20191;-70
2022/10/30 06:55:20;;;;;;;11.43;9.03;;;15.10;99.90;;;;;;5044214;28;20173;-70
2022/10/30 06:57:52;;;;;;;11.70;8.47;;;15.20;99.90;;;;;;5033636;28;20261;-71
2022/10/30 07:00:18;;;;;;;11.90;9.67;;;15.20;99.90;;;;;;5029803;28;20169;-70
2022/10/30 07:02:43;;;;;;;13.47;8.83;;;15.20;99.90;;;;;;5032182;28;20447;-71
2022/10/30 07:05:09;;;;;;;16.03;9.23;;;15.20;99.90;;;;;;5046122;28;20626;-70
2022/10/30 07:07:34;;;;;;;10.77;8.50;;;15.10;99.90;;;;;;5039350;28;20248;-71
2022/10/30 07:10:00;;;;;;;12.17;10.00;;;15.10;99.90;;;;;;5039316;28;20172;-70
2022/10/30 07:12:26;;;;;;;14.27;9.40;;;15.20;99.90;;;;;;5046513;28;20214;-70
2022/10/30 07:14:51;;;;;;;15.23;9.43;;;15.20;99.90;;;;;;5034632;28;20608;-70
2022/10/30 07:17:17;;;;;;;14.20;9.87;;;15.20;99.90;;;;;;5045347;28;20217;-70
2022/10/30 07:19:42;;;;;;;11.03;9.60;;;15.20;99.90;;;;;;5039545;28;20173;-70
2022/10/30 07:22:08;;;;;;;12.63;8.23;;;15.30;99.90;;;;;;5037099;28;20187;-71
2022/10/30 07:24:33;;;;;;;11.20;8.17;;;15.40;99.90;;;;;;5046622;28;20172;-71
2022/10/30 07:26:59;;;;;;;12.33;8.70;;;15.40;99.90;;;;;;5033611;28;20172;-71
2022/10/30 07:29:24;;;;;;;11.70;9.03;;;15.40;99.90;;;;;;5049338;28;20617;-70
2022/10/30 07:31:50;;;;;;;10.97;8.67;;;15.50;99.90;;;;;;5040261;28;20508;-70
2022/10/30 07:34:15;;;;;;;9.80;7.43;;;15.60;99.90;;;;;;5037549;28;20214;-71
2022/10/30 07:36:41;;;;;;;12.33;7.70;;;15.90;99.90;;;;;;5034669;28;20211;-70
2022/10/30 07:39:06;;;;;;;16.33;8.27;;;16.00;99.90;;;;;;5049521;28;20274;-70
2022/10/30 07:41:32;;;;;;;14.63;8.33;;;16.20;99.90;;;;;;5041556;28;20221;-70
2022/10/30 07:43:57;;;;;;;10.37;7.53;;;16.40;99.90;;;;;;5042141;28;20518;-70
2022/10/30 07:46:23;;;;;;;12.20;7.70;;;16.50;99.90;;;;;;5048653;28;20550;-71
2022/10/30 07:48:48;;;;;;;10.17;9.07;;;16.70;99.90;;;;;;5037414;28;20181;-70
2022/10/30 07:51:14;;;;;;;11.80;8.23;;;17.00;99.90;;;;;;5048037;28;20186;-70
2022/10/30 07:53:40;;;;;;;12.20;7.83;;;16.80;99.90;;;;;;5042547;28;20214;-70
2022/10/30 07:56:05;;;;;;;10.60;8.60;;;16.90;99.90;;;;;;5041248;28;20205;-70
2022/10/30 07:58:31;;;;;;;8.47;7.27;;;16.90;99.90;;;;;;5034204;28;20216;-70
2022/10/30 08:00:57;;;;;;;12.67;7.57;;;16.80;99.90;;;;;;5034360;28;20167;-70
2022/10/30 08:03:22;;;;;;;10.13;8.60;;;16.80;99.90;;;;;;5034859;28;20586;-71
2022/10/30 08:05:48;;;;;;;10.10;8.50;;;16.60;99.90;;;;;;5034002;28;20557;-72
2022/10/30 08:08:13;;;;;;;9.97;7.73;;;17.00;99.90;;;;;;5034176;28;20170;-69
2022/10/30 08:10:39;;;;;;;8.30;7.20;;;17.00;99.90;;;;;;5034168;28;20234;-71
2022/10/30 08:13:04;;;;;;;9.83;8.80;;;17.20;99.90;;;;;;5032063;28;20507;-70
2022/10/30 08:15:31;;;;;;;11.77;7.70;;;17.70;99.90;;;;;;5032780;28;20636;-70
2022/10/30 08:17:57;;;;;;;9.30;7.00;;;17.70;99.90;;;;;;5033852;28;20225;-70
2022/10/30 08:20:23;;;;;;;14.03;7.53;;;17.20;99.90;;;;;;5033419;28;20410;-72
2022/10/30 08:22:49;;;;;;;11.17;7.47;;;17.00;99.90;;;;;;5032987;28;20195;-70
2022/10/30 08:25:16;;;;;;;17.73;9.33;;;16.80;99.90;;;;;;5034083;28;20413;-70
2022/10/30 08:27:57;;;;;;;10.37;8.10;;;16.80;99.90;;;;;;5029074;28;20505;-70
2022/10/30 08:30:25;;;;;;;9.87;7.30;;;16.80;99.90;;;;;;5031443;28;20425;-71
2022/10/30 08:32:50;;;;;;;11.10;10.00;;;16.70;99.90;;;;;;5043010;28;20438;-71
2022/10/30 08:35:16;;;;;;;13.60;7.90;;;16.50;99.90;;;;;;5034030;28;20509;-70
2022/10/30 08:37:42;;;;;;;9.73;7.87;;;16.50;99.90;;;;;;5034657;28;20251;-70
2022/10/30 08:40:09;;;;;;;10.83;7.60;;;16.80;99.90;;;;;;5031364;28;20475;-71
2022/10/30 08:42:35;;;;;;;13.40;7.93;;;16.80;99.90;;;;;;5035181;28;20194;-71
2022/10/30 08:45:01;;;;;;;14.80;7.83;;;16.80;99.90;;;;;;5029841;28;21036;-71
2022/10/30 08:47:27;;;;;;;12.70;6.23;;;16.90;99.90;;;;;;5035434;28;20558;-71
2022/10/30 08:49:52;;;;;;;14.27;7.87;;;17.20;99.90;;;;;;5032476;28;20649;-69
2022/10/30 08:52:18;;;;;;;15.53;6.97;;;17.20;99.90;;;;;;5039408;28;20599;-71
2022/10/30 08:54:43;;;;;;;12.03;8.00;;;17.10;99.90;;;;;;5049573;28;20182;-70
2022/10/30 08:57:09;;;;;;;9.20;7.47;;;17.10;99.90;;;;;;5038678;28;20506;-71
2022/10/30 08:59:34;;;;;;;8.67;6.70;;;17.30;99.90;;;;;;5044019;28;20196;-71
2022/10/30 09:02:00;;;;;;;9.23;7.17;;;17.60;99.90;;;;;;5045952;28;20200;-71
2022/10/30 09:04:25;;;;;;;11.77;8.00;;;17.80;99.90;;;;;;5037952;28;20235;-71
2022/10/30 09:06:51;;;;;;;9.23;7.43;;;18.10;99.90;;;;;;5050475;28;20220;-70
2022/10/30 09:09:16;;;;;;;8.60;6.47;;;18.30;99.90;;;;;;5040566;28;20255;-72
2022/10/30 09:11:42;;;;;;;7.77;6.00;;;18.40;99.90;;;;;;5044054;28;20282;-71
2022/10/30 09:14:07;;;;;;;7.80;5.80;;;18.60;99.90;;;;;;5047712;28;20681;-71
2022/10/30 09:16:33;;;;;;;10.43;6.63;;;18.80;99.90;;;;;;5038938;28;20197;-71
2022/10/30 09:18:58;;;;;;;7.37;5.70;;;19.10;99.90;;;;;;5051767;28;20173;-71
2022/10/30 09:21:24;;;;;;;9.90;5.80;;;19.20;99.90;;;;;;5043712;28;20187;-72
2022/10/30 09:23:49;;;;;;;9.13;5.77;;;19.00;99.90;;;;;;5036506;28;20214;-71
2022/10/30 09:26:15;;;;;;;8.03;6.53;;;18.90;99.90;;;;;;5047220;28;20572;-71
2022/10/30 09:28:40;;;;;;;8.30;5.80;;;19.00;99.90;;;;;;5034261;28;20178;-71
2022/10/30 09:31:06;;;;;;;7.83;5.83;;;19.00;99.90;;;;;;5037300;28;20182;-70
2022/10/30 09:33:31;;;;;;;9.53;5.40;;;19.00;99.90;;;;;;5043458;28;20193;-71
2022/10/30 09:35:57;;;;;;;9.03;6.33;;;19.20;99.90;;;;;;5041038;28;20183;-70
2022/10/30 09:38:23;;;;;;;6.93;6.23;;;19.30;99.90;;;;;;5032336;28;20203;-70
2022/10/30 09:41:21;;;;;;;7.40;6.07;;;19.10;99.90;;;;;;5042197;28;20671;-69
2022/10/30 09:44:15;;;;;;;8.20;5.33;;;19.10;99.90;;;;;;5029442;28;20283;-71
2022/10/30 09:47:19;;;;;;;6.47;5.40;;;18.80;99.90;;;;;;5031909;28;20926;-69
2022/10/30 09:50:03;;;;;;;7.17;5.53;;;18.90;99.90;;;;;;5032542;28;20447;-70
2022/10/30 09:52:40;;;;;;;11.10;6.57;;;19.00;99.90;;;;;;5012751;28;20440;-71
2022/10/30 09:55:19;;;;;;;8.43;5.63;;;19.00;99.90;;;;;;5012472;28;20424;-69
2022/10/30 09:58:17;;;;;;;10.50;5.40;;;19.00;99.90;;;;;;5012260;28;21051;-69
2022/10/30 10:01:08;;;;;;;7.20;5.13;;;19.00;99.90;;;;;;5012734;28;20404;-70
2022/10/30 10:03:47;;;;;;;7.10;5.67;;;19.40;99.90;;;;;;5025449;28;20450;-70
2022/10/30 10:06:18;;;;;;;7.37;5.57;;;19.40;99.90;;;;;;5031842;28;20434;-67
2022/10/30 10:09:05;;;;;;;5.83;5.03;;;19.40;99.90;;;;;;5025559;28;20431;-70
2022/10/30 10:11:36;;;;;;;9.70;4.83;;;19.30;99.90;;;;;;5031774;28;20464;-71
2022/10/30 10:14:07;;;;;;;8.17;5.80;;;19.40;99.90;;;;;;5032269;28;20435;-71
2022/10/30 10:16:35;;;;;;;10.53;7.03;;;19.40;99.90;;;;;;5032002;28;20448;-71
2022/10/30 10:19:40;;;;;;;15.10;6.57;;;19.30;99.90;;;;;;5029060;28;21027;-69
2022/10/30 10:22:33;;;;;;;7.90;6.30;;;19.40;99.90;;;;;;5032058;28;20405;-69
2022/10/30 10:24:58;;;;;;;9.93;5.60;;;19.70;99.90;;;;;;5031782;28;20401;-70
2022/10/30 10:27:58;;;;;;;10.57;5.80;;;19.50;99.90;;;;;;5033155;28;20435;-70
2022/10/30 10:30:28;;;;;;;12.03;8.67;;;19.70;99.90;;;;;;5012709;28;20185;-70
2022/10/30 10:33:24;;;;;;;21.80;14.47;;;19.90;99.90;;;;;;5027264;28;20543;-70
2022/10/30 10:35:58;;;;;;;10.67;6.43;;;20.00;99.90;;;;;;5027390;28;20436;-72
2022/10/30 10:38:43;;;;;;;5.60;5.10;;;19.80;99.90;;;;;;5035812;28;20463;-69
2022/10/30 10:41:14;;;;;;;9.60;6.80;;;19.70;99.90;;;;;;5041402;28;20465;-70
2022/10/30 10:44:24;;;;;;;9.93;7.40;;;19.90;99.90;;;;;;5028196;28;20434;-71
2022/10/30 10:47:29;;;;;;;8.83;5.60;;;19.90;99.90;;;;;;5034982;28;20469;-70
2022/10/30 10:50:04;;;;;;;7.43;4.40;;;19.90;99.90;;;;;;5020022;28;20417;-72
2022/10/30 10:52:45;;;;;;;5.23;4.43;;;19.90;99.90;;;;;;5041796;28;20479;-72
2022/10/30 10:55:27;;;;;;;12.00;5.80;;;19.90;99.90;;;;;;5040267;28;20422;-70
2022/10/30 10:57:58;;;;;;;11.73;5.40;;;20.10;99.90;;;;;;5031030;28;20822;-72
2022/10/30 11:00:27;;;;;;;6.53;5.33;;;20.10;99.90;;;;;;5036564;28;20405;-70
2022/10/30 11:03:05;;;;;;;5.93;4.77;;;20.10;99.90;;;;;;5043067;28;20466;-69
2022/10/30 11:05:36;;;;;;;9.87;5.63;;;20.20;99.90;;;;;;5050110;28;20405;-69
2022/10/30 11:08:25;;;;;;;7.40;4.37;;;20.30;99.90;;;;;;5034400;28;20794;-70
2022/10/30 11:10:56;;;;;;;11.60;5.23;;;20.40;99.90;;;;;;5039265;28;20427;-69
2022/10/30 11:13:26;;;;;;;9.50;4.70;;;20.40;99.90;;;;;;5035826;28;20592;-69
2022/10/30 11:15:57;;;;;;;7.40;5.10;;;20.50;99.90;;;;;;5031350;28;20481;-69
2022/10/30 11:18:24;;;;;;;7.87;5.47;;;20.50;99.90;;;;;;5033743;28;20527;-69
2022/10/30 11:20:59;;;;;;;5.17;4.73;;;20.50;99.90;;;;;;5043507;28;20468;-69
2022/10/30 11:23:43;;;;;;;9.23;7.03;;;20.40;99.90;;;;;;5038107;28;20473;-69
2022/10/30 11:26:17;;;;;;;9.50;6.43;;;20.50;99.90;;;;;;5034627;28;20949;-69
2022/10/30 11:28:56;;;;;;;12.03;8.70;;;20.60;99.90;;;;;;5040026;28;20404;-69
2022/10/30 11:31:37;;;;;;;6.70;4.77;;;20.60;99.90;;;;;;5045299;28;20436;-71
2022/10/30 11:34:18;;;;;;;8.70;4.90;;;20.60;99.90;;;;;;5029853;28;20464;-71
2022/10/30 11:36:44;;;;;;;6.30;4.67;;;20.50;99.90;;;;;;5033600;28;20465;-71
2022/10/30 11:39:16;;;;;;;11.40;5.87;;;20.60;99.90;;;;;;5034547;28;20776;-71
2022/10/30 11:41:44;;;;;;;9.20;5.53;;;20.80;99.90;;;;;;5050831;28;20505;-71
2022/10/30 11:44:10;;;;;;;8.10;5.60;;;21.10;99.90;;;;;;5036005;28;20434;-70
2022/10/30 11:46:36;;;;;;;5.57;4.07;;;21.10;99.90;;;;;;5033655;28;20908;-71
2022/10/30 11:49:02;;;;;;;8.83;4.07;;;21.20;99.90;;;;;;5034924;28;20405;-71
2022/10/30 11:51:38;;;;;;;7.70;3.80;;;21.10;99.90;;;;;;5034531;28;20427;-69
2022/10/30 11:54:06;;;;;;;7.17;4.30;;;21.10;99.90;;;;;;5032528;28;20212;-70
2022/10/30 11:56:33;;;;;;;6.53;4.57;;;21.10;99.90;;;;;;5025548;28;20457;-71
2022/10/30 11:59:02;;;;;;;9.23;4.53;;;21.30;99.90;;;;;;5038698;28;20891;-70
2022/10/30 12:01:30;;;;;;;8.63;3.97;;;21.30;99.90;;;;;;5034346;28;20907;-72
2022/10/30 12:04:11;;;;;;;4.97;4.30;;;21.30;99.90;;;;;;5033043;28;20493;-72
2022/10/30 12:06:36;;;;;;;7.17;4.13;;;21.20;99.90;;;;;;5034468;28;20923;-70
2022/10/30 12:09:18;;;;;;;4.77;3.90;;;21.30;99.90;;;;;;5034416;28;20399;-71
2022/10/30 12:11:44;;;;;;;7.77;5.50;;;21.40;99.90;;;;;;5034244;28;20178;-71
2022/10/30 12:14:18;;;;;;;5.90;4.27;;;21.30;99.90;;;;;;5034144;28;20821;-71
2022/10/30 12:16:55;;;;;;;5.23;4.20;;;21.30;99.90;;;;;;5031274;28;20971;-71
2022/10/30 12:19:23;;;;;;;7.90;3.93;;;21.30;99.90;;;;;;5033847;28;20777;-69
2022/10/30 12:21:55;;;;;;;8.67;4.40;;;21.40;99.90;;;;;;5034008;28;20413;-71
2022/10/30 12:24:35;;;;;;;4.77;4.00;;;21.30;99.90;;;;;;5034082;28;20425;-70
2022/10/30 12:27:04;;;;;;;12.53;3.73;;;21.50;99.90;;;;;;5033968;28;20474;-73
2022/10/30 12:29:57;;;;;;;3.87;3.43;;;21.70;99.90;;;;;;5033982;28;20771;-72
2022/10/30 12:32:27;;;;;;;7.10;5.10;;;21.80;99.90;;;;;;5030950;28;20516;-71
2022/10/30 12:35:08;;;;;;;7.67;4.40;;;21.70;99.90;;;;;;5029766;28;20499;-72
2022/10/30 12:37:42;;;;;;;7.80;4.80;;;21.80;99.90;;;;;;5033807;28;20446;-71
2022/10/30 12:40:14;;;;;;;6.63;4.90;;;21.90;99.90;;;;;;5033884;28;20406;-72
2022/10/30 12:42:53;;;;;;;7.43;4.40;;;21.80;99.90;;;;;;5033685;28;20536;-72
2022/10/30 12:45:28;;;;;;;7.50;3.90;;;21.70;99.90;;;;;;5033908;28;20400;-71
2022/10/30 12:48:02;;;;;;;6.57;3.97;;;21.70;99.90;;;;;;5036013;28;20521;-70